• Join FlightAware (Why Join?)
  • Login
  • US Flag 
11:14PM EST


 

Airport Tracker/Info


-or-


 

Live Flight TrackerFlight Track Log ✈ CTL309 ✈ 13-Jun-2013 ✈ KBKL - KOSU

Flight Track Log - Related Links

Times and Time Zones

All times are in EDT time to prevent confusion due to time zone crossing. See the CTL309 flight status page for this flight to view local times or setup timezone preferences in your user account.

Time Position Orientation Groundspeed Altitude Reporting Facility
EDT Latitude Longitude Course Direction KTS MPH feet Rate Location/Type
10:23PM 41.5275 -81.6703 32° Northeast 119 137 1,200  Level Cleveland Center
10:24PM 41.5569 -81.6458 32° Northeast 120 138 2,100 1,140 Climbing Cleveland Center
10:25PM 41.5819 -81.6297 26° Northeast 92 106 3,600 1,380 Climbing Cleveland Center
10:26PM 41.5697 -81.6100 130° Southeast 138 159 4,700 960 Climbing Cleveland Center
10:27PM 41.5303 -81.6011 170° South 146 168 5,500 600 Climbing Cleveland Center
10:28PM 41.4864 -81.5892 168° South 161 185 6,000 240 Climbing Cleveland Center
10:29PM 41.4403 -81.6356 217° Southwest 191 220 6,100  Climbing Cleveland Center
10:30PM 41.4022 -81.6822 223° Southwest 194 223 6,000 -60 Descending Cleveland Center
10:31PM 41.3603 -81.7256 218° Southwest 188 216 6,000  Level Cleveland Center
10:32PM 41.3264 -81.7639 220° Southwest 187 215 6,100  Climbing Cleveland Center
10:33PM 41.2800 -81.8156 220° Southwest 196 226 6,000 -60 Descending Cleveland Center
10:34PM 41.2378 -81.8644 221° Southwest 191 220 6,000  Level Cleveland Center
10:35PM 41.1956 -81.9078 218° Southwest 194 223 6,000  Level Cleveland Center
10:37PM 41.1069 -81.9969 217° Southwest 196 226 6,000  Level Cleveland Center
10:39PM 41.0203 -82.0797 216° Southwest 197 227 6,000  Level Indianapolis Center
10:40PM 40.9764 -82.1250 218° Southwest 198 228 6,000  Level Indianapolis Center
10:41PM 40.9361 -82.1744 223° Southwest 197 227 6,000  Level Indianapolis Center
10:42PM 40.8936 -82.2208 220° Southwest 196 226 6,000  Level Indianapolis Center
10:43PM 40.8500 -82.2661 218° Southwest 197 227 6,000  Level Indianapolis Center
10:44PM 40.8072 -82.3103 218° Southwest 194 223 6,000 -60 Level Indianapolis Center
10:45PM 40.7656 -82.3547 219° Southwest 192 221 5,900 -60 Descending Indianapolis Center
10:46PM 40.7247 -82.3994 220° Southwest 190 219 5,900  Level Indianapolis Center
10:47PM 40.6836 -82.4436 219° Southwest 190 219 5,900  Level Indianapolis Center
10:48PM 40.6369 -82.4981 222° Southwest 190 219 5,900  Level Indianapolis Center
10:49PM 40.5944 -82.5406 217° Southwest 190 219 5,900  Level Indianapolis Center
10:50PM 40.5533 -82.5836 219° Southwest 188 216 5,900  Level Indianapolis Center
10:51PM 40.5142 -82.6292 221° Southwest 187 215 6,000  Climbing Indianapolis Center
10:52PM 40.4747 -82.6753 222° Southwest 188 216 5,900 -120 Descending Indianapolis Center
10:53PM 40.4472 -82.7036 218° Southwest 190 219 5,900 -240 Level Indianapolis Center
10:54PM 40.4314 -82.7169 213° Southwest 191 220 5,700 -540 Descending Indianapolis Center
10:54PM 40.4025 -82.7481 219° Southwest 200 230 5,400 -300 Descending Indianapolis Center
10:55PM 40.3847 -82.7597 207° Southwest 200 230 5,400 -120 Level Indianapolis Center
10:55PM 40.3603 -82.7869 220° Southwest 202 232 5,300 -540 Descending Indianapolis Center
10:56PM 40.3392 -82.8036 211° Southwest 201 231 4,900 -540 Descending Indianapolis Center
10:56PM 40.3136 -82.8283 216° Southwest 204 235 4,800 -420 Descending Indianapolis Center
10:57PM 40.2931 -82.8442 210° Southwest 205 236 4,500 -600 Descending Indianapolis Center
10:57PM 40.2711 -82.8672 219° Southwest 207 238 4,300 -840 Descending Indianapolis Center
10:58PM 40.2461 -82.8897 214° Southwest 207 238 3,700 -840 Descending Indianapolis Center
10:58PM 40.2197 -82.9158 217° Southwest 211 243 3,400 -780 Descending Indianapolis Center
10:59PM 40.1903 -82.9447 217° Southwest 211 243 2,900 -840 Descending Indianapolis Center
11:01PM 40.1294 -83.0158 222° Southwest  Level FlightAware Approximate
11:08PM 40.0798 -83.0732 201° Southwest  Level Estimated
11:09PM 40.0798 -83.0732 201° Southwest  Level Estimated